createdAt,value
2023-10-16T00:00:04.670Z,4.70
2023-10-16T00:01:04.669Z,4.80
2023-10-16T00:02:05.222Z,4.60
2023-10-16T00:03:05.383Z,4.60
2023-10-16T00:04:05.747Z,4.60
2023-10-16T00:05:05.473Z,4.80
2023-10-16T00:06:04.633Z,4.70
2023-10-16T00:07:04.676Z,5.00
2023-10-16T00:08:04.588Z,5.60
2023-10-16T00:09:04.585Z,5.80
2023-10-16T00:10:05.447Z,4.80
2023-10-16T00:11:04.636Z,5.40
2023-10-16T00:12:04.583Z,5.30
2023-10-16T00:13:04.596Z,6.10
2023-10-16T00:14:04.573Z,5.40
2023-10-16T00:15:05.446Z,5.30
2023-10-16T00:16:04.588Z,5.10
2023-10-16T00:17:04.529Z,5.10
2023-10-16T00:18:04.548Z,4.90
2023-10-16T00:19:04.495Z,5.00
2023-10-16T00:20:04.519Z,5.30
2023-10-16T00:21:04.519Z,5.10
2023-10-16T00:22:04.546Z,5.40
2023-10-16T00:23:04.468Z,4.60
2023-10-16T00:24:04.710Z,5.00
2023-10-16T00:25:04.543Z,4.60
2023-10-16T00:26:04.462Z,5.00
2023-10-16T00:27:04.477Z,5.20
2023-10-16T00:28:04.479Z,5.00
2023-10-16T00:29:04.447Z,5.30
2023-10-16T00:30:04.418Z,5.70
2023-10-16T00:31:04.410Z,5.80
2023-10-16T00:32:04.423Z,6.00
2023-10-16T00:33:04.472Z,6.00
2023-10-16T00:34:04.480Z,6.20
2023-10-16T00:35:04.409Z,5.80
2023-10-16T00:36:04.370Z,6.20
2023-10-16T00:37:04.393Z,6.20
2023-10-16T00:38:04.379Z,6.20
2023-10-16T00:39:04.357Z,6.00
2023-10-16T00:40:04.366Z,6.40
2023-10-16T00:41:04.330Z,6.20
2023-10-16T00:42:04.329Z,5.40
2023-10-16T00:43:04.361Z,5.80
2023-10-16T00:44:04.317Z,5.60
2023-10-16T00:45:04.318Z,5.40
2023-10-16T00:46:04.394Z,5.70
2023-10-16T00:47:04.840Z,5.70
2023-10-16T00:48:04.300Z,5.90
2023-10-16T00:49:04.341Z,5.80
2023-10-16T00:50:04.274Z,5.50
2023-10-16T00:51:04.258Z,5.30
2023-10-16T00:52:04.327Z,5.80
2023-10-16T00:53:04.229Z,5.80
2023-10-16T00:54:04.241Z,5.80
2023-10-16T00:55:04.263Z,5.80
2023-10-16T00:56:04.209Z,6.30
2023-10-16T00:57:04.224Z,6.40
2023-10-16T00:58:04.229Z,6.30
2023-10-16T00:59:04.228Z,5.80
2023-10-16T01:00:04.188Z,5.70
2023-10-16T01:01:04.204Z,6.10
2023-10-16T01:02:04.195Z,5.90
2023-10-16T01:03:04.207Z,5.90
2023-10-16T01:04:04.171Z,6.00
2023-10-16T01:05:04.163Z,6.20
2023-10-16T01:06:04.150Z,6.20
2023-10-16T01:07:04.176Z,6.30
2023-10-16T01:23:20.212Z,6.50
2023-10-16T01:24:21.435Z,6.20
2023-10-16T01:25:24.575Z,5.50
2023-10-16T01:26:21.315Z,5.60
2023-10-16T01:27:21.366Z,5.50
2023-10-16T01:28:21.334Z,5.50
2023-10-16T01:29:22.170Z,4.80
2023-10-16T01:30:21.363Z,5.30
2023-10-16T01:31:21.308Z,4.70
2023-10-16T01:32:21.271Z,5.20
2023-10-16T01:33:21.290Z,4.90
2023-10-16T01:34:22.203Z,5.20
2023-10-16T01:35:21.249Z,5.20
2023-10-16T01:36:22.285Z,5.30
2023-10-16T01:37:21.241Z,4.90
2023-10-16T01:38:21.243Z,5.10
2023-10-16T01:39:21.270Z,5.00
2023-10-16T01:40:21.222Z,4.90
2023-10-16T01:41:21.232Z,4.90
2023-10-16T01:42:21.270Z,5.20
2023-10-16T01:43:21.230Z,5.60
2023-10-16T01:44:21.178Z,4.90
2023-10-16T01:45:21.282Z,5.30
2023-10-16T01:46:21.362Z,5.30
2023-10-16T01:47:21.204Z,5.00
2023-10-16T01:48:21.193Z,5.00
2023-10-16T01:49:22.089Z,5.40
2023-10-16T01:50:21.151Z,5.50
2023-10-16T01:51:21.152Z,5.30
2023-10-16T01:52:21.122Z,5.30
2023-10-16T01:53:21.151Z,5.20
2023-10-16T01:54:21.143Z,5.70
2023-10-16T01:55:21.144Z,5.10
2023-10-16T01:56:21.101Z,5.90
2023-10-16T01:57:21.147Z,5.60
2023-10-16T01:58:21.076Z,6.20
2023-10-16T01:59:21.098Z,5.60
2023-10-16T02:00:21.145Z,6.00
2023-10-16T02:01:21.083Z,5.30
2023-10-16T02:02:21.086Z,5.90
2023-10-16T02:03:21.098Z,5.90
2023-10-16T02:04:22.108Z,5.60
2023-10-16T02:05:21.037Z,5.60
2023-10-16T02:06:21.060Z,5.80
2023-10-16T02:07:20.998Z,5.50
2023-10-16T02:08:21.050Z,5.60
2023-10-16T02:09:20.988Z,6.30
2023-10-16T02:10:20.995Z,6.00
2023-10-16T02:11:21.006Z,5.80
2023-10-16T02:12:20.987Z,5.50
2023-10-16T02:13:20.976Z,5.80
2023-10-16T02:14:20.972Z,5.90
2023-10-16T02:15:21.010Z,5.50
2023-10-16T02:16:21.000Z,5.80
2023-10-16T02:17:21.924Z,6.00
2023-10-16T02:18:20.944Z,6.30
2023-10-16T02:19:20.922Z,6.50
2023-10-16T02:20:20.925Z,7.00
2023-10-16T02:21:20.918Z,6.80
2023-10-16T02:22:20.931Z,6.80
2023-10-16T02:23:20.887Z,6.30
2023-10-16T02:24:20.912Z,6.70
2023-10-16T02:25:20.888Z,6.70
2023-10-16T02:26:20.865Z,6.80
2023-10-16T02:27:21.010Z,6.80
2023-10-16T02:28:20.995Z,6.70
2023-10-16T02:29:20.943Z,6.80
2023-10-16T02:30:20.860Z,7.10
2023-10-16T02:31:20.844Z,7.00
2023-10-16T02:32:20.855Z,6.70
2023-10-16T02:33:20.925Z,6.70
2023-10-16T02:34:20.841Z,7.10
2023-10-16T02:35:20.834Z,6.90
2023-10-16T02:36:20.819Z,6.80
2023-10-16T02:37:20.787Z,7.40
2023-10-16T02:38:20.825Z,6.70
2023-10-16T02:39:20.809Z,6.90
2023-10-16T02:40:20.765Z,6.90
2023-10-16T02:41:20.749Z,6.80
2023-10-16T02:42:21.228Z,6.50
2023-10-16T02:43:21.608Z,6.40
2023-10-16T02:44:20.761Z,6.70
2023-10-16T02:45:20.772Z,6.90
2023-10-16T02:46:21.612Z,6.70
2023-10-16T02:47:21.724Z,7.00
2023-10-16T02:48:20.740Z,6.90
2023-10-16T02:49:20.688Z,6.50
2023-10-16T02:50:20.730Z,6.40
2023-10-16T02:51:20.776Z,6.70
2023-10-16T02:52:20.728Z,7.10
2023-10-16T02:53:21.666Z,6.80
2023-10-16T02:54:20.700Z,6.90
2023-10-16T02:55:20.664Z,6.40
2023-10-16T02:56:20.667Z,7.00
2023-10-16T02:57:20.638Z,7.20
2023-10-16T02:58:20.629Z,7.60
2023-10-16T02:59:20.609Z,6.90
2023-10-16T03:00:20.652Z,7.40
2023-10-16T03:01:20.758Z,6.60
2023-10-16T03:02:20.699Z,6.80
2023-10-16T03:03:20.734Z,6.80
2023-10-16T03:04:20.594Z,7.30
2023-10-16T03:05:20.602Z,7.10
2023-10-16T03:06:20.635Z,7.40
2023-10-16T03:07:20.586Z,7.10
2023-10-16T03:08:20.561Z,6.80
2023-10-16T03:09:20.606Z,6.70
2023-10-16T03:10:20.534Z,6.90
2023-10-16T03:11:20.527Z,6.90
2023-10-16T03:12:20.554Z,7.00
2023-10-16T03:13:20.523Z,7.50
2023-10-16T03:14:20.545Z,7.60
2023-10-16T03:15:20.524Z,7.20
2023-10-16T03:16:20.545Z,6.90
2023-10-16T03:17:20.527Z,6.80
2023-10-16T03:18:20.530Z,7.00
2023-10-16T03:20:27.610Z,6.70
2023-10-16T03:21:27.770Z,7.20
2023-10-16T03:22:27.093Z,6.70
2023-10-16T03:23:27.092Z,7.00
2023-10-16T03:24:28.443Z,7.20
2023-10-16T03:25:28.219Z,6.60
2023-10-16T03:26:28.814Z,6.60
2023-10-16T03:27:28.214Z,7.20
2023-10-16T03:28:28.198Z,6.70
2023-10-16T03:29:28.165Z,6.60
2023-10-16T03:30:28.327Z,6.50
2023-10-16T03:31:29.256Z,7.10
2023-10-16T03:32:28.184Z,6.80
2023-10-16T03:33:28.184Z,6.90
2023-10-16T03:34:28.128Z,6.90
2023-10-16T03:35:28.145Z,7.40
2023-10-16T03:36:28.161Z,7.10
2023-10-16T03:37:28.117Z,7.20
2023-10-16T03:38:28.173Z,6.60
2023-10-16T03:39:28.105Z,7.40
2023-10-16T03:40:28.109Z,6.60
2023-10-16T03:41:28.085Z,7.30
2023-10-16T03:42:28.786Z,6.80
2023-10-16T03:43:28.102Z,7.10
2023-10-16T03:44:28.305Z,7.50
2023-10-16T03:45:28.223Z,7.30
2023-10-16T03:46:28.860Z,7.70
2023-10-16T03:47:29.069Z,7.10
2023-10-16T04:04:14.952Z,3.50
2023-10-16T04:05:14.798Z,5.60
2023-10-16T04:06:14.753Z,6.80
2023-10-16T04:07:14.789Z,7.60
2023-10-16T04:08:14.761Z,7.50
2023-10-16T04:09:14.843Z,8.10
2023-10-16T04:10:14.723Z,8.00
2023-10-16T04:11:15.906Z,7.90
2023-10-16T04:12:15.882Z,8.40
2023-10-16T04:13:15.844Z,8.30
2023-10-16T04:14:15.972Z,8.70
2023-10-16T04:15:15.869Z,8.60
2023-10-16T04:16:15.830Z,8.00
2023-10-16T04:17:15.809Z,8.40
2023-10-16T04:18:15.814Z,8.70
2023-10-16T04:19:15.832Z,8.90
2023-10-16T04:20:15.799Z,8.30
2023-10-16T04:21:15.929Z,8.20
2023-10-16T04:22:15.855Z,8.20
2023-10-16T04:23:15.765Z,7.50
2023-10-16T04:24:16.747Z,7.80
2023-10-16T04:25:16.388Z,8.50
2023-10-16T04:26:15.732Z,8.10
2023-10-16T04:27:16.047Z,7.70
2023-10-16T04:28:15.729Z,7.80
2023-10-16T04:29:16.450Z,8.00
2023-10-16T04:30:15.784Z,8.50
2023-10-16T04:31:15.739Z,8.10
2023-10-16T04:32:16.525Z,7.80
2023-10-16T04:33:15.696Z,8.40
2023-10-16T04:34:15.732Z,8.60
2023-10-16T04:35:15.736Z,7.80
2023-10-16T04:36:15.678Z,7.50
2023-10-16T04:37:15.704Z,8.00
2023-10-16T04:38:16.363Z,7.60
2023-10-16T04:39:15.657Z,8.50
2023-10-16T04:40:15.665Z,8.30
2023-10-16T04:41:15.630Z,8.30
2023-10-16T04:42:15.624Z,8.40
2023-10-16T04:43:15.624Z,8.20
2023-10-16T04:44:15.606Z,8.50
2023-10-16T04:45:16.376Z,8.00
2023-10-16T04:46:15.726Z,8.10
2023-10-16T04:47:15.616Z,8.70
2023-10-16T04:48:15.580Z,8.40
2023-10-16T04:49:15.656Z,8.40
2023-10-16T04:50:15.573Z,8.30
2023-10-16T04:51:34.080Z,8.20
2023-10-16T04:52:17.592Z,8.10
2023-10-16T04:53:15.556Z,7.90
2023-10-16T04:54:15.542Z,8.00
2023-10-16T04:55:15.530Z,8.40
2023-10-16T04:56:15.544Z,7.50
2023-10-16T04:57:15.600Z,7.70
2023-10-16T04:58:16.478Z,8.30
2023-10-16T04:59:15.507Z,7.90
2023-10-16T05:00:15.531Z,7.50
2023-10-16T05:01:15.586Z,8.60
2023-10-16T05:02:15.524Z,8.10
2023-10-16T05:03:15.618Z,7.50
2023-10-16T05:04:15.553Z,8.50
2023-10-16T05:05:48.408Z,8.50
2023-10-16T05:06:16.985Z,8.00
2023-10-16T05:07:15.448Z,7.70
2023-10-16T05:08:15.496Z,7.40
2023-10-16T05:09:47.963Z,7.60
2023-10-16T05:10:15.510Z,7.90
2023-10-16T05:11:15.436Z,7.90
2023-10-16T05:12:15.427Z,7.60
2023-10-16T05:13:16.409Z,8.40
2023-10-16T05:14:15.399Z,7.90
2023-10-16T05:15:15.400Z,7.80
2023-10-16T05:16:15.441Z,8.70
2023-10-16T05:17:15.354Z,8.00
2023-10-16T05:18:15.377Z,8.10
2023-10-16T05:19:15.360Z,7.20
2023-10-16T05:20:15.339Z,6.70
2023-10-16T05:21:15.338Z,6.60
2023-10-16T05:22:15.345Z,7.00
2023-10-16T05:23:15.320Z,6.70
2023-10-16T05:24:15.341Z,6.90
2023-10-16T05:25:49.582Z,7.90
2023-10-16T05:26:15.332Z,8.40
2023-10-16T05:27:15.354Z,9.10
2023-10-16T05:28:15.281Z,9.70
2023-10-16T05:29:15.273Z,10.70
2023-10-16T05:30:15.308Z,10.10
2023-10-16T05:31:15.321Z,11.10
2023-10-16T05:32:15.243Z,11.10
2023-10-16T05:33:15.288Z,10.70
2023-10-16T05:34:15.229Z,10.70
2023-10-16T05:35:15.280Z,10.40
2023-10-16T05:36:15.212Z,10.20
2023-10-16T05:37:15.207Z,10.70
2023-10-16T05:38:15.204Z,10.10
2023-10-16T05:39:15.165Z,10.00
2023-10-16T05:40:15.199Z,10.00
2023-10-16T05:41:15.186Z,11.10
2023-10-16T05:42:15.178Z,9.80
2023-10-16T05:43:15.224Z,9.40
2023-10-16T05:44:16.044Z,9.30
2023-10-16T05:45:16.203Z,8.20
2023-10-16T05:46:15.263Z,9.30
2023-10-16T05:47:19.050Z,9.30
2023-10-16T05:48:17.033Z,9.80
2023-10-16T05:49:15.137Z,9.80
2023-10-16T05:50:15.154Z,10.30
2023-10-16T05:51:15.160Z,10.40
2023-10-16T05:52:15.110Z,9.80
2023-10-16T05:53:15.080Z,9.50
2023-10-16T05:54:15.096Z,9.30
2023-10-16T05:55:15.070Z,9.00
2023-10-16T05:56:15.506Z,12.10
2023-10-16T05:57:15.106Z,15.60
2023-10-16T05:58:15.118Z,19.30
2023-10-16T05:59:15.046Z,14.90
2023-10-16T06:00:15.025Z,13.30
2023-10-16T06:01:16.082Z,13.20
2023-10-16T06:02:15.050Z,11.80
2023-10-16T06:03:15.165Z,10.70
2023-10-16T06:04:15.272Z,10.40
2023-10-16T06:05:15.216Z,9.20
2023-10-16T06:06:14.981Z,9.00
2023-10-16T06:07:15.049Z,9.20
2023-10-16T06:08:14.972Z,8.80
2023-10-16T06:09:14.979Z,8.70
2023-10-16T06:10:14.948Z,9.20
2023-10-16T06:11:14.953Z,8.50
2023-10-16T06:12:14.947Z,8.10
2023-10-16T06:13:16.323Z,8.40
2023-10-16T06:14:14.944Z,8.80
2023-10-16T06:15:14.927Z,8.80
2023-10-16T06:16:14.991Z,9.10
2023-10-16T06:17:14.928Z,8.80
2023-10-16T06:18:14.951Z,8.80
2023-10-16T06:19:14.960Z,9.00
2023-10-16T06:20:14.925Z,8.70
2023-10-16T06:21:14.880Z,8.80
2023-10-16T06:22:14.866Z,8.70
2023-10-16T06:23:14.891Z,8.70
2023-10-16T06:24:14.868Z,9.70
2023-10-16T06:25:14.931Z,8.40
2023-10-16T06:26:48.020Z,9.70
2023-10-16T06:27:14.830Z,9.70
2023-10-16T06:28:14.916Z,10.20
2023-10-16T06:29:16.406Z,10.20
2023-10-16T06:30:14.820Z,9.80
2023-10-16T06:31:14.874Z,9.70
2023-10-16T06:32:14.809Z,10.30
2023-10-16T06:33:14.787Z,9.90
2023-10-16T06:34:14.772Z,10.40
2023-10-16T06:35:14.783Z,9.90
2023-10-16T06:36:14.833Z,10.20
2023-10-16T06:37:14.780Z,10.60
2023-10-16T06:38:15.746Z,9.80
2023-10-16T06:39:14.736Z,10.30
2023-10-16T06:40:14.769Z,10.30
2023-10-16T06:41:15.409Z,10.00
2023-10-16T06:42:14.801Z,10.80
2023-10-16T06:43:14.756Z,10.60
2023-10-16T06:44:15.404Z,10.10
2023-10-16T06:45:14.743Z,10.60
2023-10-16T06:46:14.766Z,10.00
2023-10-16T06:47:15.686Z,9.90
2023-10-16T06:48:14.721Z,11.20
2023-10-16T06:49:14.671Z,11.20
2023-10-16T06:50:14.794Z,10.40
2023-10-16T06:51:14.749Z,10.80
2023-10-16T06:52:14.746Z,10.30
2023-10-16T06:53:14.637Z,11.50
2023-10-16T06:54:14.653Z,11.00
2023-10-16T06:55:14.652Z,10.90
2023-10-16T06:56:14.655Z,10.10
2023-10-16T06:57:14.668Z,11.70
2023-10-16T06:58:14.802Z,13.20
2023-10-16T06:59:14.612Z,12.10
2023-10-16T07:00:14.607Z,12.30
2023-10-16T07:01:14.742Z,11.90
2023-10-16T07:02:14.584Z,14.10
2023-10-16T07:03:14.699Z,12.40
2023-10-16T07:04:15.196Z,10.50
2023-10-16T07:05:14.532Z,11.10
2023-10-16T07:06:15.085Z,10.30
2023-10-16T07:07:14.533Z,10.00
2023-10-16T07:08:14.522Z,9.40
2023-10-16T07:09:14.580Z,10.10
2023-10-16T07:10:15.130Z,10.50
2023-10-16T07:11:14.489Z,9.70
2023-10-16T07:12:15.158Z,10.00
2023-10-16T07:13:14.514Z,10.20
2023-10-16T07:14:14.516Z,10.60
2023-10-16T07:15:14.532Z,10.40
2023-10-16T07:16:14.631Z,10.30
2023-10-16T07:17:14.458Z,9.80
2023-10-16T07:18:14.475Z,10.80
2023-10-16T07:19:14.475Z,10.10
2023-10-16T07:20:14.490Z,10.60
2023-10-16T07:21:14.428Z,11.30
2023-10-16T07:22:14.464Z,11.40
2023-10-16T07:23:14.440Z,10.50
2023-10-16T07:24:14.427Z,10.50
2023-10-16T07:25:14.453Z,10.70
2023-10-16T07:26:14.399Z,8.50
2023-10-16T07:27:14.392Z,10.60
2023-10-16T07:28:14.401Z,12.40
2023-10-16T07:29:14.348Z,11.70
2023-10-16T07:30:14.348Z,10.30
2023-10-16T07:31:14.411Z,11.30
2023-10-16T07:32:14.351Z,10.60
2023-10-16T07:33:15.315Z,10.70
2023-10-16T07:34:14.433Z,9.90
2023-10-16T07:35:14.347Z,9.90
2023-10-16T07:36:14.422Z,9.60
2023-10-16T07:37:14.308Z,10.50
2023-10-16T07:38:14.281Z,10.40
2023-10-16T07:39:14.283Z,10.60
2023-10-16T07:40:14.284Z,10.40
2023-10-16T07:41:14.416Z,10.70
2023-10-16T07:42:14.285Z,10.70
2023-10-16T07:43:14.251Z,9.50
2023-10-16T07:44:14.241Z,10.30
2023-10-16T07:45:14.259Z,11.20
2023-10-16T07:46:14.435Z,9.90
2023-10-16T07:47:14.244Z,10.00
2023-10-16T07:48:14.210Z,11.10
2023-10-16T07:49:14.232Z,10.90
2023-10-16T07:50:14.188Z,10.20
2023-10-16T07:51:14.180Z,9.10
2023-10-16T07:52:14.279Z,9.50
2023-10-16T07:53:14.176Z,9.40
2023-10-16T07:54:14.209Z,9.50
2023-10-16T07:55:14.170Z,9.10
2023-10-16T07:56:14.165Z,9.70
2023-10-16T07:57:14.175Z,8.80
2023-10-16T07:58:14.137Z,8.30
2023-10-16T07:59:14.139Z,8.30
2023-10-16T08:00:47.122Z,8.40
2023-10-16T08:01:14.197Z,8.80
2023-10-16T08:02:14.091Z,8.00
2023-10-16T08:03:14.145Z,8.00
2023-10-16T08:04:14.219Z,7.70
2023-10-16T08:05:14.661Z,8.10
2023-10-16T08:06:14.075Z,7.30
2023-10-16T08:07:14.063Z,7.90
2023-10-16T08:08:14.054Z,7.40
2023-10-16T08:09:14.095Z,7.70
2023-10-16T08:10:14.024Z,8.40
2023-10-16T08:11:14.025Z,8.10
2023-10-16T08:12:14.165Z,7.90
2023-10-16T08:13:13.996Z,8.10
2023-10-16T08:14:14.005Z,7.70
2023-10-16T08:15:14.053Z,7.60
2023-10-16T08:16:14.148Z,8.00
2023-10-16T08:17:14.102Z,8.10
2023-10-16T08:18:14.046Z,8.10
2023-10-16T08:19:14.028Z,24.00
2023-10-16T08:20:13.973Z,15.00
2023-10-16T08:21:13.974Z,8.90
2023-10-16T08:22:13.952Z,9.00
2023-10-16T08:23:13.928Z,16.60
2023-10-16T08:24:15.646Z,11.30
2023-10-16T08:25:14.998Z,19.90
2023-10-16T08:26:13.921Z,10.50
2023-10-16T08:27:13.889Z,14.00
2023-10-16T08:28:13.897Z,17.30
2023-10-16T08:29:13.911Z,11.20
2023-10-16T08:30:13.918Z,11.50
2023-10-16T08:31:13.907Z,19.70
2023-10-16T08:32:13.980Z,15.20
2023-10-16T08:33:13.855Z,16.80
2023-10-16T08:34:13.847Z,34.20
2023-10-16T08:35:13.880Z,11.50
2023-10-16T08:36:13.836Z,8.90
2023-10-16T08:37:13.813Z,7.20
2023-10-16T08:38:13.816Z,8.80
2023-10-16T08:39:14.545Z,8.10
2023-10-16T08:40:13.845Z,7.80
2023-10-16T08:41:13.809Z,6.40
2023-10-16T08:42:13.779Z,6.10
2023-10-16T08:43:13.769Z,6.20
2023-10-16T08:44:13.768Z,5.70
2023-10-16T08:45:13.747Z,5.80
2023-10-16T08:46:14.490Z,5.60
2023-10-16T08:47:14.695Z,5.90
2023-10-16T08:48:14.701Z,5.90
2023-10-16T08:49:13.785Z,5.80
2023-10-16T08:50:13.697Z,5.90
2023-10-16T08:51:13.738Z,5.20
2023-10-16T08:52:13.712Z,5.90
2023-10-16T08:53:13.719Z,6.00
2023-10-16T08:54:13.670Z,5.90
2023-10-16T08:55:14.702Z,5.60
2023-10-16T08:56:14.685Z,5.90
2023-10-16T08:57:13.777Z,5.90
2023-10-16T08:58:13.720Z,5.90
2023-10-16T08:59:13.667Z,6.00
2023-10-16T09:00:15.252Z,6.20
2023-10-16T09:01:13.711Z,5.60
2023-10-16T09:02:13.646Z,5.40
2023-10-16T09:03:13.729Z,5.70
2023-10-16T09:04:15.209Z,5.60
2023-10-16T09:05:14.629Z,5.60
2023-10-16T09:06:13.601Z,6.00
2023-10-16T09:07:13.631Z,5.80
2023-10-16T09:08:13.559Z,6.30
2023-10-16T09:09:13.607Z,6.40
2023-10-16T09:10:13.563Z,6.80
2023-10-16T09:11:14.462Z,6.20
2023-10-16T09:12:13.564Z,6.00
2023-10-16T09:13:13.528Z,6.10
2023-10-16T09:14:13.518Z,6.10
2023-10-16T09:15:13.551Z,6.10
2023-10-16T09:16:13.562Z,6.00
2023-10-16T09:17:13.502Z,6.70
2023-10-16T09:18:13.466Z,6.80
2023-10-16T09:19:13.488Z,6.60
2023-10-16T09:20:13.513Z,6.50
2023-10-16T09:21:13.456Z,6.80
2023-10-16T09:22:13.464Z,7.00
2023-10-16T09:23:13.455Z,7.00
2023-10-16T09:24:13.476Z,7.20
2023-10-16T09:25:19.315Z,7.10
2023-10-16T09:26:14.416Z,6.60
2023-10-16T09:27:13.440Z,7.30
2023-10-16T09:28:13.401Z,7.00
2023-10-16T09:29:13.400Z,7.20
2023-10-16T09:30:13.477Z,6.60
2023-10-16T09:31:13.533Z,6.90
2023-10-16T09:32:13.434Z,6.80
2023-10-16T09:33:13.458Z,7.00
2023-10-16T09:34:13.353Z,7.00
2023-10-16T09:35:13.345Z,7.00
2023-10-16T09:36:13.349Z,6.70
2023-10-16T09:37:13.401Z,7.10
2023-10-16T09:38:13.321Z,6.60
2023-10-16T09:39:13.297Z,7.30
2023-10-16T09:40:23.552Z,7.10
2023-10-16T09:41:15.290Z,6.90
2023-10-16T09:42:13.498Z,7.90
2023-10-16T09:43:13.294Z,7.10
2023-10-16T09:44:13.266Z,7.80
2023-10-16T09:45:13.267Z,7.50
2023-10-16T09:46:13.322Z,8.20
2023-10-16T09:47:13.271Z,7.40
2023-10-16T09:48:13.292Z,7.50
2023-10-16T09:49:13.269Z,7.20
2023-10-16T09:50:13.265Z,7.10
2023-10-16T09:51:13.239Z,7.10
2023-10-16T09:52:13.240Z,6.70
2023-10-16T09:53:13.270Z,7.20
2023-10-16T09:54:13.219Z,6.70
2023-10-16T09:55:13.235Z,7.30
2023-10-16T09:56:13.306Z,6.40
2023-10-16T09:57:13.206Z,6.50
2023-10-16T09:58:13.203Z,6.50
2023-10-16T09:59:13.187Z,6.70
2023-10-16T10:00:13.184Z,7.30
2023-10-16T10:01:13.193Z,7.30
2023-10-16T10:02:13.170Z,7.40
2023-10-16T10:03:13.254Z,7.80
2023-10-16T10:04:13.223Z,7.20
2023-10-16T10:05:13.162Z,7.00
2023-10-16T10:06:13.122Z,7.30
2023-10-16T10:07:13.101Z,6.80
2023-10-16T10:08:13.126Z,6.50
2023-10-16T10:09:13.246Z,6.10
2023-10-16T10:10:13.199Z,6.20
2023-10-16T10:11:22.648Z,6.50
2023-10-16T10:12:15.381Z,6.30
2023-10-16T10:13:13.042Z,6.20
2023-10-16T10:14:13.042Z,6.30
2023-10-16T10:15:13.067Z,6.20
2023-10-16T10:16:13.141Z,6.50
2023-10-16T10:17:13.010Z,6.30
2023-10-16T10:18:13.043Z,6.10
2023-10-16T10:19:13.058Z,5.80
2023-10-16T10:20:13.004Z,5.60
2023-10-16T10:21:13.017Z,5.60
2023-10-16T10:22:13.004Z,5.80
2023-10-16T10:23:13.178Z,6.10
2023-10-16T10:24:13.013Z,6.10
2023-10-16T10:25:19.802Z,6.30
2023-10-16T10:26:14.940Z,6.30
2023-10-16T10:27:13.079Z,6.00
2023-10-16T10:28:13.036Z,6.00
2023-10-16T10:29:13.092Z,7.50
2023-10-16T10:30:12.954Z,6.60
2023-10-16T10:31:13.049Z,6.20
2023-10-16T10:32:12.899Z,6.40
2023-10-16T10:33:12.990Z,6.50
2023-10-16T10:34:12.939Z,6.60
2023-10-16T10:35:12.947Z,6.70
2023-10-16T10:36:12.891Z,6.30
2023-10-16T10:37:12.934Z,6.00
2023-10-16T10:38:12.896Z,6.20
2023-10-16T10:39:12.901Z,6.20
2023-10-16T10:40:12.917Z,5.50
2023-10-16T10:41:12.875Z,6.10
2023-10-16T10:42:14.776Z,5.20
2023-10-16T10:43:13.899Z,5.50
2023-10-16T10:44:15.052Z,6.00
2023-10-16T10:45:13.826Z,5.60
2023-10-16T10:46:12.892Z,5.70
2023-10-16T10:47:12.794Z,6.20
2023-10-16T10:48:13.686Z,6.40
2023-10-16T10:49:12.807Z,6.30
2023-10-16T10:50:12.810Z,5.80
2023-10-16T10:51:12.829Z,4.90
2023-10-16T10:52:12.847Z,5.00
2023-10-16T10:53:20.116Z,5.40
2023-10-16T10:54:15.069Z,5.50
2023-10-16T10:55:12.767Z,5.60
2023-10-16T10:56:12.736Z,5.20
2023-10-16T10:57:12.728Z,5.30
2023-10-16T10:58:12.766Z,5.20
2023-10-16T10:59:15.781Z,5.00
2023-10-16T11:00:12.695Z,5.00
2023-10-16T11:01:12.783Z,5.00
2023-10-16T11:02:13.315Z,5.10
2023-10-16T11:03:13.701Z,4.90
2023-10-16T11:04:12.726Z,4.90
2023-10-16T11:05:13.534Z,4.80
2023-10-16T11:06:44.713Z,5.40
2023-10-16T11:07:12.759Z,5.10
2023-10-16T11:08:15.238Z,5.00
2023-10-16T11:09:12.649Z,4.90
2023-10-16T11:12:10.002Z,4.50
2023-10-16T11:13:10.665Z,4.50
2023-10-16T11:14:11.139Z,4.40
2023-10-16T11:15:11.264Z,4.30
2023-10-16T11:16:11.278Z,4.30
2023-10-16T11:17:11.186Z,4.20
2023-10-16T11:18:11.457Z,4.50
2023-10-16T11:19:11.144Z,4.00
2023-10-16T11:20:11.140Z,5.30
2023-10-16T11:21:11.159Z,5.10
2023-10-16T11:22:11.806Z,5.00
2023-10-16T11:23:11.173Z,4.40
2023-10-16T11:24:11.160Z,4.00
2023-10-16T11:25:11.085Z,3.90
2023-10-16T11:26:11.124Z,3.70
2023-10-16T11:27:11.218Z,4.50
2023-10-16T11:28:11.148Z,4.10
2023-10-16T11:29:11.629Z,3.80
2023-10-16T11:30:11.544Z,3.80
2023-10-16T11:31:13.087Z,3.70
2023-10-16T11:32:43.690Z,3.60
2023-10-16T11:33:11.296Z,4.10
2023-10-16T11:34:43.688Z,4.30
2023-10-16T11:35:10.984Z,3.90
2023-10-16T11:36:11.778Z,3.60
2023-10-16T11:37:11.070Z,4.20
2023-10-16T11:38:10.927Z,4.40
2023-10-16T11:39:10.957Z,4.00
2023-10-16T11:40:10.927Z,3.70
2023-10-16T11:41:43.671Z,4.10
2023-10-16T11:42:11.678Z,4.10
2023-10-16T11:43:10.931Z,3.70
2023-10-16T11:44:10.905Z,4.00
2023-10-16T11:45:10.892Z,4.00
2023-10-16T11:46:11.731Z,3.70
2023-10-16T11:47:10.901Z,3.60
2023-10-16T11:48:10.921Z,3.60
2023-10-16T11:49:10.884Z,3.90
2023-10-16T11:50:10.850Z,3.80
2023-10-16T11:51:10.846Z,4.00
2023-10-16T11:52:10.879Z,4.80
2023-10-16T11:53:10.834Z,4.00
2023-10-16T11:54:10.819Z,3.40
2023-10-16T11:55:11.005Z,3.30
2023-10-16T11:56:10.800Z,2.90
2023-10-16T11:57:10.807Z,3.00
2023-10-16T11:58:10.821Z,2.70
2023-10-16T11:59:10.811Z,3.30
2023-10-16T12:00:42.757Z,3.20
2023-10-16T12:01:28.144Z,3.20
2023-10-16T12:02:12.826Z,2.90
2023-10-16T12:03:10.838Z,2.60
2023-10-16T12:04:10.859Z,3.10
2023-10-16T12:05:10.768Z,2.80
2023-10-16T12:06:10.733Z,2.50
2023-10-16T12:07:10.815Z,3.00
2023-10-16T12:08:10.734Z,2.50
2023-10-16T12:09:10.706Z,2.70
2023-10-16T12:10:10.722Z,2.50
2023-10-16T12:11:10.703Z,2.50
2023-10-16T12:12:10.724Z,2.60
2023-10-16T12:13:10.674Z,2.40
2023-10-16T12:14:10.722Z,2.20
2023-10-16T12:15:10.678Z,2.30
2023-10-16T12:16:20.734Z,2.80
2023-10-16T12:17:12.686Z,2.20
2023-10-16T12:18:10.667Z,2.20
2023-10-16T12:19:10.782Z,2.40
2023-10-16T12:20:10.628Z,1.90
2023-10-16T12:21:44.313Z,2.00
2023-10-16T12:22:10.690Z,2.00
2023-10-16T12:23:12.020Z,2.30
2023-10-16T12:24:10.639Z,2.00
2023-10-16T12:25:10.648Z,2.10
2023-10-16T12:26:10.591Z,1.80
2023-10-16T12:27:10.582Z,1.80
2023-10-16T12:28:11.296Z,1.80
2023-10-16T12:29:10.589Z,1.70
2023-10-16T12:30:10.565Z,1.80
2023-10-16T12:31:11.413Z,1.90
2023-10-16T12:32:11.285Z,1.80
2023-10-16T12:33:11.586Z,1.70
2023-10-16T12:34:10.657Z,1.50
2023-10-16T12:35:10.635Z,1.60
2023-10-16T12:36:10.506Z,1.80
2023-10-16T12:37:10.787Z,2.10
2023-10-16T12:38:10.510Z,1.70
2023-10-16T12:39:10.504Z,1.90
2023-10-16T12:40:10.566Z,1.60
2023-10-16T12:41:10.483Z,1.60
2023-10-16T12:42:10.470Z,1.70
2023-10-16T12:43:11.458Z,1.60
2023-10-16T12:44:10.465Z,1.30
2023-10-16T12:45:10.544Z,1.40
2023-10-16T12:46:10.519Z,1.30
2023-10-16T12:47:10.447Z,1.40
2023-10-16T12:48:10.470Z,1.30
2023-10-16T12:49:10.438Z,1.20
2023-10-16T12:50:10.434Z,1.30
2023-10-16T12:51:12.156Z,1.40
2023-10-16T12:52:11.544Z,1.20
2023-10-16T12:53:10.389Z,1.40
2023-10-16T12:54:10.400Z,1.30
2023-10-16T12:55:10.691Z,1.10
2023-10-16T12:56:10.391Z,1.30
2023-10-16T12:57:10.362Z,1.40
2023-10-16T12:58:10.350Z,1.10
2023-10-16T12:59:10.378Z,1.50
2023-10-16T13:00:10.352Z,1.20
2023-10-16T13:01:10.420Z,1.50
2023-10-16T13:02:10.347Z,1.70
2023-10-16T13:03:10.415Z,1.40
2023-10-16T13:04:10.336Z,2.00
2023-10-16T13:05:10.889Z,4.20
2023-10-16T13:06:10.310Z,2.30
2023-10-16T13:07:14.506Z,1.50
2023-10-16T13:08:11.330Z,1.50
2023-10-16T13:09:10.253Z,1.50
2023-10-16T13:10:10.348Z,1.60
2023-10-16T13:11:10.308Z,1.90
2023-10-16T13:12:10.286Z,2.70
2023-10-16T13:13:10.288Z,2.70
2023-10-16T13:14:10.221Z,2.20
2023-10-16T13:15:10.230Z,3.50
2023-10-16T13:16:10.237Z,6.40
2023-10-16T13:17:10.247Z,3.90
2023-10-16T13:18:10.207Z,2.80
2023-10-16T13:19:10.230Z,2.10
2023-10-16T13:20:10.200Z,2.20
2023-10-16T13:21:10.157Z,1.90
2023-10-16T13:22:10.193Z,2.40
2023-10-16T13:23:10.264Z,3.00
2023-10-16T13:24:10.166Z,1.70
2023-10-16T13:25:10.209Z,1.20
2023-10-16T13:26:10.158Z,1.10
2023-10-16T13:27:10.118Z,1.40
2023-10-16T13:28:10.301Z,1.30
2023-10-16T13:29:10.120Z,1.90
2023-10-16T13:30:10.110Z,1.80
2023-10-16T13:31:10.196Z,1.40
2023-10-16T13:32:10.181Z,1.30
2023-10-16T13:33:10.201Z,1.40
2023-10-16T13:34:10.111Z,1.10
2023-10-16T13:35:10.862Z,1.00
2023-10-16T13:36:10.072Z,1.20
2023-10-16T13:37:10.140Z,1.20
2023-10-16T13:38:10.097Z,1.10
2023-10-16T13:39:11.018Z,1.10
2023-10-16T13:40:10.094Z,1.20
2023-10-16T13:41:10.059Z,0.90
2023-10-16T13:42:10.026Z,1.00
2023-10-16T13:43:10.066Z,1.40
2023-10-16T13:44:10.027Z,1.10
2023-10-16T13:45:10.063Z,1.20
2023-10-16T13:46:10.068Z,1.10
2023-10-16T13:47:10.051Z,0.70
2023-10-16T13:48:10.875Z,1.00